Time;durP1;ratioP1;P1;durP2;ratioP2;P2;SDS_P1;SDS_P2;PMS_P1;PMS_P2;Temp;Humidity;BMP_temperature;BMP_pressure;BME280_temperature;BME280_humidity;BME280_pressure;Samples;Min_cycle;Max_cycle;Signal;HPM_P1;HPM_P2
2022/09/18 00:01:46;;;;;;;4.87;1.53;;;;;;;;;;4986642;28;20307;-54
2022/09/18 00:04:13;;;;;;;5.83;1.20;;;;;;;;;;4985307;28;20592;-56
2022/09/18 00:06:41;;;;;;;4.33;1.50;;;;;;;;;;4970935;28;20240;-55
2022/09/18 00:09:10;;;;;;;3.37;1.40;;;;;;;;;;4986040;28;20299;-55
2022/09/18 00:11:39;;;;;;;3.80;1.23;;;;;;;;;;4992832;28;20287;-56
2022/09/18 00:14:07;;;;;;;4.47;1.20;;;;;;;;;;4989988;28;20224;-53
2022/09/18 00:16:34;;;;;;;3.20;1.10;;;;;;;;;;4988719;28;20231;-53
2022/09/18 00:19:00;;;;;;;4.60;1.40;;;;;;;;;;4988288;28;20469;-53
2022/09/18 00:21:28;;;;;;;4.47;1.90;;;;;;;;;;4986368;28;20291;-55
2022/09/18 00:23:56;;;;;;;3.67;1.20;;;;;;;;;;4985833;28;20235;-54
2022/09/18 00:26:24;;;;;;;2.77;1.30;;;;;;;;;;4992298;28;20196;-56
2022/09/18 00:31:33;;;;;;;5.17;1.57;;;;;;;;;;5087102;23;20578;-52
2022/09/18 00:34:04;;;;;;;3.07;1.33;;;;;;;;;;4998806;28;20219;-50
2022/09/18 00:36:30;;;;;;;4.30;1.40;;;;;;;;;;5005705;28;20274;-53
2022/09/18 00:39:01;;;;;;;4.17;1.53;;;;;;;;;;5004369;28;20226;-51
2022/09/18 00:41:31;;;;;;;2.10;1.20;;;;;;;;;;5002765;28;20204;-52
2022/09/18 00:44:33;;;;;;;4.37;1.13;;;;;;;;;;5004979;28;20251;-51
2022/09/18 00:47:08;;;;;;;3.47;1.27;;;;;;;;;;4989985;28;20282;-50
2022/09/18 00:49:37;;;;;;;4.63;1.40;;;;;;;;;;5001515;28;20224;-53
2022/09/18 00:52:04;;;;;;;2.07;1.20;;;;;;;;;;4987735;28;20283;-53
2022/09/18 00:54:34;;;;;;;3.87;1.00;;;;;;;;;;4985641;28;20204;-52
2022/09/18 00:57:05;;;;;;;2.00;1.27;;;;;;;;;;4987818;28;20315;-53
2022/09/18 00:59:32;;;;;;;3.27;1.37;;;;;;;;;;5005984;28;20300;-53
2022/09/18 01:02:00;;;;;;;2.13;1.10;;;;;;;;;;4988703;28;20787;-53
2022/09/18 01:04:27;;;;;;;4.63;1.20;;;;;;;;;;4991240;28;20199;-52
2022/09/18 01:07:34;;;;;;;5.93;1.13;;;;;;;;;;5008794;28;20283;-53
2022/09/18 01:10:38;;;;;;;2.87;1.10;;;;;;;;;;4977393;28;20631;-53
2022/09/18 01:13:25;;;;;;;2.57;1.10;;;;;;;;;;5006492;28;20251;-52
2022/09/18 01:16:04;;;;;;;3.67;1.00;;;;;;;;;;4991260;28;20260;-53
2022/09/18 01:18:41;;;;;;;2.07;0.80;;;;;;;;;;4985145;28;20220;-50
2022/09/18 01:21:46;;;;;;;2.27;1.13;;;;;;;;;;5004684;28;20196;-51
2022/09/18 01:24:45;;;;;;;2.30;1.10;;;;;;;;;;4996477;28;20643;-53
2022/09/18 01:27:25;;;;;;;2.13;0.90;;;;;;;;;;4970104;28;20196;-52
2022/09/18 01:29:52;;;;;;;5.57;1.10;;;;;;;;;;4985970;28;20660;-53
2022/09/18 01:32:28;;;;;;;1.43;1.00;;;;;;;;;;5002797;28;20643;-54
2022/09/18 01:34:54;;;;;;;2.67;1.10;;;;;;;;;;5002865;28;20290;-53
2022/09/18 01:37:34;;;;;;;1.50;0.97;;;;;;;;;;5002535;28;20277;-55
2022/09/18 01:40:05;;;;;;;2.30;0.87;;;;;;;;;;5004975;28;20224;-53
2022/09/18 01:42:34;;;;;;;3.23;0.97;;;;;;;;;;5005583;28;20224;-54
2022/09/18 01:45:04;;;;;;;2.77;1.00;;;;;;;;;;5002632;28;20616;-53
2022/09/18 01:47:36;;;;;;;1.83;0.83;;;;;;;;;;4984572;28;20254;-55
2022/09/18 01:50:03;;;;;;;1.47;0.90;;;;;;;;;;5004882;28;20246;-51
2022/09/18 01:52:32;;;;;;;2.07;0.73;;;;;;;;;;5006671;28;20262;-53
2022/09/18 01:55:01;;;;;;;2.00;1.10;;;;;;;;;;5001842;28;20289;-52
2022/09/18 01:57:33;;;;;;;2.00;0.87;;;;;;;;;;4996683;28;20239;-56
2022/09/18 02:00:07;;;;;;;3.23;1.83;;;;;;;;;;5004162;28;20289;-55
2022/09/18 02:02:39;;;;;;;1.17;0.80;;;;;;;;;;5002855;28;20910;-52
2022/09/18 02:05:09;;;;;;;2.63;0.80;;;;;;;;;;4986105;28;20682;-53
2022/09/18 02:07:55;;;;;;;2.30;0.90;;;;;;;;;;4979798;28;20905;-52
2022/09/18 02:10:22;;;;;;;2.97;1.00;;;;;;;;;;5000164;28;20231;-51
2022/09/18 02:12:50;;;;;;;2.20;0.90;;;;;;;;;;4998922;28;20255;-52
2022/09/18 02:15:18;;;;;;;2.47;0.83;;;;;;;;;;5005950;28;20245;-53
2022/09/18 02:17:47;;;;;;;2.20;0.97;;;;;;;;;;4987734;28;20240;-49
2022/09/18 02:20:19;;;;;;;1.77;0.90;;;;;;;;;;5003105;28;20235;-51
2022/09/18 02:22:46;;;;;;;2.13;0.80;;;;;;;;;;4987888;28;20252;-51
2022/09/18 02:25:17;;;;;;;2.47;0.70;;;;;;;;;;5004051;28;20228;-54
2022/09/18 02:27:45;;;;;;;5.30;0.70;;;;;;;;;;5004032;28;20231;-54
2022/09/18 02:30:12;;;;;;;2.13;0.93;;;;;;;;;;4966751;28;20235;-53
2022/09/18 02:32:39;;;;;;;2.80;0.80;;;;;;;;;;4976797;28;20248;-52
2022/09/18 02:35:07;;;;;;;2.90;0.73;;;;;;;;;;4996598;28;20673;-54
2022/09/18 02:38:03;;;;;;;1.00;0.80;;;;;;;;;;5003936;28;20718;-54
2022/09/18 02:40:50;;;;;;;0.97;0.60;;;;;;;;;;4983918;28;20809;-53
2022/09/18 02:43:22;;;;;;;3.20;0.90;;;;;;;;;;4995874;28;20248;-53
2022/09/18 02:46:06;;;;;;;2.80;0.90;;;;;;;;;;4999262;28;20673;-51
2022/09/18 02:49:15;;;;;;;1.40;0.80;;;;;;;;;;4988316;28;20200;-50
2022/09/18 02:51:48;;;;;;;0.93;0.60;;;;;;;;;;4962115;28;20236;-50
2022/09/18 02:54:31;;;;;;;1.17;0.73;;;;;;;;;;4997599;28;20220;-49
2022/09/18 02:57:01;;;;;;;1.00;0.70;;;;;;;;;;4966245;28;20244;-51
2022/09/18 02:59:30;;;;;;;1.53;0.70;;;;;;;;;;4985544;28;20275;-50
2022/09/18 03:01:57;;;;;;;2.27;0.73;;;;;;;;;;4978897;28;20678;-51
2022/09/18 03:04:26;;;;;;;4.73;0.90;;;;;;;;;;4985862;28;20683;-50
2022/09/18 03:06:53;;;;;;;1.17;0.70;;;;;;;;;;5000573;28;20307;-50
2022/09/18 03:09:20;;;;;;;1.40;0.70;;;;;;;;;;4985509;28;20224;-51
2022/09/18 03:11:48;;;;;;;2.63;0.80;;;;;;;;;;4993693;28;20232;-50
2022/09/18 03:14:15;;;;;;;1.10;0.80;;;;;;;;;;4979197;28;20264;-49
2022/09/18 03:16:41;;;;;;;3.20;0.70;;;;;;;;;;5011468;28;20409;-52
2022/09/18 03:19:08;;;;;;;1.43;0.80;;;;;;;;;;4999915;28;20287;-52
2022/09/18 03:21:34;;;;;;;0.80;0.60;;;;;;;;;;4995344;28;20240;-52
2022/09/18 03:24:01;;;;;;;1.43;0.70;;;;;;;;;;5002297;28;20266;-50
2022/09/18 03:26:27;;;;;;;1.57;0.73;;;;;;;;;;4996435;28;20553;-52
2022/09/18 03:28:54;;;;;;;3.37;0.60;;;;;;;;;;4998971;28;20269;-50
2022/09/18 03:31:20;;;;;;;2.13;0.60;;;;;;;;;;4999226;28;20236;-52
2022/09/18 03:33:47;;;;;;;1.07;0.60;;;;;;;;;;5000968;28;20279;-52
2022/09/18 03:36:13;;;;;;;1.77;0.53;;;;;;;;;;5004408;28;20327;-50
2022/09/18 03:38:40;;;;;;;1.30;0.60;;;;;;;;;;5002283;28;20192;-51
2022/09/18 03:41:07;;;;;;;1.10;0.70;;;;;;;;;;4999847;28;20246;-49
2022/09/18 03:43:34;;;;;;;0.87;0.60;;;;;;;;;;4997694;28;20252;-50
2022/09/18 03:46:00;;;;;;;1.60;0.70;;;;;;;;;;5004331;28;20279;-49
2022/09/18 03:48:27;;;;;;;1.23;0.60;;;;;;;;;;5003001;28;20200;-49
2022/09/18 03:50:53;;;;;;;1.50;0.60;;;;;;;;;;4993838;28;20246;-54
2022/09/18 03:53:20;;;;;;;2.70;0.60;;;;;;;;;;5002929;28;20255;-52
2022/09/18 03:55:48;;;;;;;1.10;0.50;;;;;;;;;;4981922;28;20250;-52
2022/09/18 03:58:15;;;;;;;0.70;0.50;;;;;;;;;;5002232;28;20191;-50
2022/09/18 04:00:41;;;;;;;1.40;0.67;;;;;;;;;;4998738;28;20276;-49
2022/09/18 04:03:08;;;;;;;0.97;0.50;;;;;;;;;;4983950;28;20327;-49
2022/09/18 04:05:34;;;;;;;1.37;0.63;;;;;;;;;;5000283;28;20659;-54
2022/09/18 04:08:01;;;;;;;1.10;0.60;;;;;;;;;;4997551;28;20953;-52
2022/09/18 04:10:27;;;;;;;1.80;0.60;;;;;;;;;;4993255;28;20219;-51
2022/09/18 04:12:53;;;;;;;1.23;0.50;;;;;;;;;;5004384;28;20638;-49
2022/09/18 04:15:20;;;;;;;0.90;0.77;;;;;;;;;;5004922;28;20675;-50
2022/09/18 04:17:46;;;;;;;2.50;0.80;;;;;;;;;;5004434;28;20303;-49
2022/09/18 04:20:13;;;;;;;3.37;0.70;;;;;;;;;;5001359;28;20362;-50
2022/09/18 04:22:39;;;;;;;1.07;0.63;;;;;;;;;;4980229;28;20270;-53
2022/09/18 04:25:05;;;;;;;1.37;0.67;;;;;;;;;;5004811;28;20259;-53
2022/09/18 04:27:33;;;;;;;0.70;0.60;;;;;;;;;;4998763;28;20665;-56
2022/09/18 04:30:00;;;;;;;1.73;0.60;;;;;;;;;;4977065;28;20235;-50
2022/09/18 04:32:26;;;;;;;2.20;0.50;;;;;;;;;;5004714;28;20251;-51
2022/09/18 04:34:53;;;;;;;1.87;0.60;;;;;;;;;;5003812;28;20290;-49
2022/09/18 04:37:19;;;;;;;0.60;0.43;;;;;;;;;;5004019;28;20234;-51
2022/09/18 04:39:45;;;;;;;1.17;0.50;;;;;;;;;;4985624;28;20765;-49
2022/09/18 04:42:12;;;;;;;2.63;0.63;;;;;;;;;;4991336;28;20252;-56
2022/09/18 04:44:38;;;;;;;1.30;0.70;;;;;;;;;;4994950;28;20251;-53
2022/09/18 04:47:05;;;;;;;1.03;0.60;;;;;;;;;;5004409;28;20242;-51
2022/09/18 04:49:31;;;;;;;1.17;0.70;;;;;;;;;;5002585;28;20224;-50
2022/09/18 04:51:57;;;;;;;1.43;0.70;;;;;;;;;;5002155;28;20220;-54
2022/09/18 04:54:24;;;;;;;0.80;0.50;;;;;;;;;;5003683;28;20291;-51
2022/09/18 04:56:50;;;;;;;0.80;0.60;;;;;;;;;;5000986;28;20247;-51
2022/09/18 04:59:16;;;;;;;1.20;0.50;;;;;;;;;;4997591;28;20231;-51
2022/09/18 05:01:43;;;;;;;1.40;0.60;;;;;;;;;;4999793;28;20235;-55
2022/09/18 05:04:09;;;;;;;1.83;0.67;;;;;;;;;;5007235;28;20212;-50
2022/09/18 05:06:36;;;;;;;1.40;0.50;;;;;;;;;;5005085;28;20227;-53
2022/09/18 05:09:02;;;;;;;1.23;0.70;;;;;;;;;;4983010;28;20242;-49
2022/09/18 05:11:29;;;;;;;1.33;0.50;;;;;;;;;;4982953;28;20613;-49
2022/09/18 05:13:56;;;;;;;1.20;0.40;;;;;;;;;;5001221;28;20865;-49
2022/09/18 05:16:23;;;;;;;1.67;0.50;;;;;;;;;;5007138;28;20248;-49
2022/09/18 05:18:50;;;;;;;2.43;0.70;;;;;;;;;;4998416;28;20206;-52
2022/09/18 05:21:17;;;;;;;1.17;0.60;;;;;;;;;;4985372;28;20308;-50
2022/09/18 05:23:45;;;;;;;1.40;0.50;;;;;;;;;;4998646;28;20341;-49
2022/09/18 05:26:12;;;;;;;0.57;0.50;;;;;;;;;;5002620;28;20220;-50
2022/09/18 05:28:39;;;;;;;0.33;0.33;;;;;;;;;;4995872;28;20281;-51
2022/09/18 05:31:05;;;;;;;1.63;0.50;;;;;;;;;;5003102;28;20259;-51
2022/09/18 05:33:31;;;;;;;1.43;0.60;;;;;;;;;;4997492;28;20362;-49
2022/09/18 05:35:58;;;;;;;1.30;0.60;;;;;;;;;;5005569;28;20216;-49
2022/09/18 05:38:25;;;;;;;2.60;0.60;;;;;;;;;;4998505;28;20224;-49
2022/09/18 05:40:51;;;;;;;1.00;0.50;;;;;;;;;;4981954;28;20618;-53
2022/09/18 05:43:18;;;;;;;0.83;0.43;;;;;;;;;;5001796;28;20362;-52
2022/09/18 05:45:45;;;;;;;1.80;0.50;;;;;;;;;;5004398;28;20204;-50
2022/09/18 05:48:12;;;;;;;0.50;0.40;;;;;;;;;;4997390;28;20288;-53
2022/09/18 05:50:39;;;;;;;1.30;0.40;;;;;;;;;;5003601;28;20266;-50
2022/09/18 05:53:07;;;;;;;0.60;0.40;;;;;;;;;;4998379;28;20216;-49
2022/09/18 05:55:33;;;;;;;3.10;0.40;;;;;;;;;;4988237;28;20220;-49
2022/09/18 05:58:01;;;;;;;1.00;0.40;;;;;;;;;;5005793;28;20251;-51
2022/09/18 06:00:29;;;;;;;0.83;0.47;;;;;;;;;;4995999;28;20200;-49
2022/09/18 06:03:00;;;;;;;1.17;0.50;;;;;;;;;;4996489;28;20248;-49
2022/09/18 06:05:29;;;;;;;1.13;0.50;;;;;;;;;;4984959;28;20199;-50
2022/09/18 06:07:59;;;;;;;0.93;0.30;;;;;;;;;;5007060;28;20200;-51
2022/09/18 06:10:26;;;;;;;0.93;0.50;;;;;;;;;;4995436;28;20292;-50
2022/09/18 06:13:03;;;;;;;1.03;0.63;;;;;;;;;;4994534;28;20299;-49
2022/09/18 06:15:29;;;;;;;0.87;0.50;;;;;;;;;;5006147;28;20283;-50
2022/09/18 06:17:55;;;;;;;1.37;0.60;;;;;;;;;;4985796;28;20320;-49
2022/09/18 06:20:22;;;;;;;0.90;0.47;;;;;;;;;;4996518;28;20699;-50
2022/09/18 06:22:49;;;;;;;1.30;0.50;;;;;;;;;;5000356;28;20704;-51
2022/09/18 06:25:17;;;;;;;0.97;0.40;;;;;;;;;;5003373;28;20274;-51
2022/09/18 06:27:43;;;;;;;1.60;0.40;;;;;;;;;;5003580;28;20288;-52
2022/09/18 06:30:10;;;;;;;0.80;0.43;;;;;;;;;;4998087;28;20235;-50
2022/09/18 06:32:37;;;;;;;0.80;0.40;;;;;;;;;;4999438;28;20259;-49
2022/09/18 06:35:03;;;;;;;1.87;0.70;;;;;;;;;;5006113;28;20246;-51
2022/09/18 06:37:30;;;;;;;0.60;0.40;;;;;;;;;;5005352;28;20247;-51
2022/09/18 06:39:56;;;;;;;0.70;0.50;;;;;;;;;;4985527;28;20312;-53
2022/09/18 06:42:23;;;;;;;0.87;0.63;;;;;;;;;;4994613;28;20220;-50
2022/09/18 06:44:49;;;;;;;0.67;0.40;;;;;;;;;;4996071;28;20607;-50
2022/09/18 06:47:15;;;;;;;1.27;0.40;;;;;;;;;;5006441;28;20610;-50
2022/09/18 06:49:42;;;;;;;1.13;0.40;;;;;;;;;;4992916;28;20240;-52
2022/09/18 06:52:08;;;;;;;0.30;0.30;;;;;;;;;;5002093;28;20250;-51
2022/09/18 06:54:34;;;;;;;0.30;0.30;;;;;;;;;;4999089;28;20987;-51
2022/09/18 06:57:01;;;;;;;0.50;0.40;;;;;;;;;;5002469;28;20677;-52
2022/09/18 06:59:27;;;;;;;0.40;0.30;;;;;;;;;;4998657;28;20223;-53
2022/09/18 07:01:54;;;;;;;1.37;0.40;;;;;;;;;;4995856;28;20291;-50
2022/09/18 07:04:21;;;;;;;0.63;0.23;;;;;;;;;;4996653;28;20200;-52
2022/09/18 07:06:47;;;;;;;0.30;0.30;;;;;;;;;;5002328;28;20232;-51
2022/09/18 07:09:13;;;;;;;0.33;0.20;;;;;;;;;;5004951;28;20279;-55
2022/09/18 07:11:40;;;;;;;0.43;0.30;;;;;;;;;;4997566;28;20283;-54
2022/09/18 07:14:07;;;;;;;0.40;0.20;;;;;;;;;;4999426;28;20303;-52
2022/09/18 07:16:34;;;;;;;0.70;0.27;;;;;;;;;;5002919;28;20192;-53
2022/09/18 07:19:00;;;;;;;1.13;0.47;;;;;;;;;;4979177;28;20530;-52
2022/09/18 07:21:27;;;;;;;0.27;0.20;;;;;;;;;;4997699;28;20225;-51
2022/09/18 07:23:53;;;;;;;0.27;0.27;;;;;;;;;;4998818;28;20252;-50
2022/09/18 07:26:20;;;;;;;0.30;0.30;;;;;;;;;;5006002;28;20192;-50
2022/09/18 07:28:46;;;;;;;0.60;0.40;;;;;;;;;;4993449;28;20196;-49
2022/09/18 07:31:12;;;;;;;0.60;0.30;;;;;;;;;;4996302;28;20287;-49
2022/09/18 07:33:42;;;;;;;0.83;0.40;;;;;;;;;;4993099;28;20303;-53
2022/09/18 07:36:08;;;;;;;0.53;0.30;;;;;;;;;;4972280;28;20193;-50
2022/09/18 07:38:34;;;;;;;0.50;0.40;;;;;;;;;;4999103;28;20255;-49
2022/09/18 07:41:01;;;;;;;0.43;0.30;;;;;;;;;;5001396;28;20283;-52
2022/09/18 07:43:28;;;;;;;0.77;0.37;;;;;;;;;;4998915;28;20259;-51
2022/09/18 07:45:54;;;;;;;0.57;0.43;;;;;;;;;;4979939;28;20259;-50
2022/09/18 07:48:22;;;;;;;1.53;0.40;;;;;;;;;;5005788;28;20231;-50
2022/09/18 07:50:48;;;;;;;0.60;0.60;;;;;;;;;;5000649;28;20228;-51
2022/09/18 07:53:16;;;;;;;0.67;0.30;;;;;;;;;;5001128;28;20266;-50
2022/09/18 07:55:46;;;;;;;0.87;0.40;;;;;;;;;;4999888;28;20236;-50
2022/09/18 07:58:12;;;;;;;2.10;0.40;;;;;;;;;;4996544;28;20307;-53
2022/09/18 08:00:39;;;;;;;0.60;0.40;;;;;;;;;;4980420;28;20239;-50
2022/09/18 08:03:08;;;;;;;1.07;0.40;;;;;;;;;;4984916;28;20252;-52
2022/09/18 08:05:34;;;;;;;1.17;0.50;;;;;;;;;;4990399;28;20282;-51
2022/09/18 08:08:05;;;;;;;0.60;0.30;;;;;;;;;;4998033;28;20716;-49
2022/09/18 08:10:33;;;;;;;0.67;0.40;;;;;;;;;;4986618;28;20739;-49
2022/09/18 08:12:59;;;;;;;1.73;0.40;;;;;;;;;;4989328;28;20274;-50
2022/09/18 08:15:25;;;;;;;0.30;0.30;;;;;;;;;;5005428;28;20235;-49
2022/09/18 08:17:52;;;;;;;0.30;0.30;;;;;;;;;;5000710;28;20311;-49
2022/09/18 08:20:18;;;;;;;1.07;0.50;;;;;;;;;;5003627;28;20251;-50
2022/09/18 08:22:45;;;;;;;1.80;0.30;;;;;;;;;;4995024;28;20282;-50
2022/09/18 08:25:12;;;;;;;0.60;0.37;;;;;;;;;;4987887;28;20197;-50
2022/09/18 08:27:40;;;;;;;0.87;0.30;;;;;;;;;;4984908;28;20221;-50
2022/09/18 08:30:09;;;;;;;0.60;0.33;;;;;;;;;;4995201;28;20318;-50
2022/09/18 08:32:35;;;;;;;0.67;0.40;;;;;;;;;;5005410;28;20303;-53
2022/09/18 08:35:03;;;;;;;0.63;0.50;;;;;;;;;;5001449;28;20244;-49
2022/09/18 08:37:29;;;;;;;0.50;0.50;;;;;;;;;;5009433;28;20227;-50
2022/09/18 08:39:56;;;;;;;0.70;0.50;;;;;;;;;;5006748;28;20239;-51
2022/09/18 08:42:51;;;;;;;1.03;0.60;;;;;;;;;;5004259;28;20252;-49
2022/09/18 08:45:17;;;;;;;5.30;0.83;;;;;;;;;;4985405;28;20197;-50
2022/09/18 08:47:59;;;;;;;1.73;0.70;;;;;;;;;;5001850;28;20718;-50
2022/09/18 08:50:28;;;;;;;1.13;0.70;;;;;;;;;;5008176;28;20674;-50
2022/09/18 08:53:02;;;;;;;1.20;0.80;;;;;;;;;;4990348;28;20263;-52
2022/09/18 08:55:34;;;;;;;0.60;0.60;;;;;;;;;;4999161;28;20200;-50
2022/09/18 08:58:06;;;;;;;2.40;0.60;;;;;;;;;;5000201;28;20712;-49
2022/09/18 09:00:42;;;;;;;1.47;0.63;;;;;;;;;;4997807;28;20692;-49
2022/09/18 09:03:46;;;;;;;1.93;0.60;;;;;;;;;;4990442;28;20212;-49
2022/09/18 09:06:24;;;;;;;0.93;0.70;;;;;;;;;;5005422;28;20196;-49
2022/09/18 09:09:03;;;;;;;2.40;1.07;;;;;;;;;;4989210;28;20250;-50
2022/09/18 09:11:38;;;;;;;1.83;0.87;;;;;;;;;;4992943;28;20196;-52
2022/09/18 09:14:27;;;;;;;1.17;0.90;;;;;;;;;;4999331;28;20228;-49
2022/09/18 09:17:38;;;;;;;1.40;0.80;;;;;;;;;;4999836;28;20208;-53
2022/09/18 09:20:24;;;;;;;1.00;0.80;;;;;;;;;;5001528;28;20204;-50
2022/09/18 09:23:06;;;;;;;1.50;0.83;;;;;;;;;;5007299;28;20285;-50
2022/09/18 09:25:58;;;;;;;2.13;1.00;;;;;;;;;;4985613;28;20841;-50
2022/09/18 09:28:50;;;;;;;0.97;0.70;;;;;;;;;;5007385;28;20247;-50
2022/09/18 09:31:19;;;;;;;2.83;1.00;;;;;;;;;;4986228;28;20460;-49
2022/09/18 09:34:02;;;;;;;1.73;0.90;;;;;;;;;;4990578;28;20228;-49
2022/09/18 09:36:30;;;;;;;1.23;0.90;;;;;;;;;;5006694;28;20254;-54
2022/09/18 09:39:03;;;;;;;1.30;0.90;;;;;;;;;;4998961;28;20310;-55
2022/09/18 09:41:40;;;;;;;1.47;1.30;;;;;;;;;;4991770;28;20231;-51
2022/09/18 09:44:27;;;;;;;2.50;0.90;;;;;;;;;;4984696;28;20244;-49
2022/09/18 09:46:59;;;;;;;4.87;0.93;;;;;;;;;;4994271;28;20200;-52
2022/09/18 09:49:52;;;;;;;1.50;1.00;;;;;;;;;;4999941;28;20196;-56
2022/09/18 09:52:18;;;;;;;3.00;1.10;;;;;;;;;;4998218;28;20335;-53
2022/09/18 09:54:44;;;;;;;3.43;1.30;;;;;;;;;;5005074;28;20227;-55
2022/09/18 09:57:17;;;;;;;1.97;1.07;;;;;;;;;;5000431;28;20263;-53
2022/09/18 09:59:56;;;;;;;1.83;1.07;;;;;;;;;;5003545;28;20239;-56
2022/09/18 10:02:28;;;;;;;1.13;0.90;;;;;;;;;;4983484;28;20247;-51
2022/09/18 10:05:05;;;;;;;2.77;0.90;;;;;;;;;;4999151;28;20200;-52
2022/09/18 10:07:37;;;;;;;1.23;0.80;;;;;;;;;;4965256;28;20220;-51
2022/09/18 10:10:26;;;;;;;1.43;0.90;;;;;;;;;;4982062;28;20638;-50
2022/09/18 10:13:05;;;;;;;2.70;1.53;;;;;;;;;;4981639;28;20244;-61
2022/09/18 10:15:38;;;;;;;2.37;1.00;;;;;;;;;;4985802;28;20197;-61
2022/09/18 10:18:12;;;;;;;1.90;0.90;;;;;;;;;;4990673;28;20245;-58
2022/09/18 10:20:43;;;;;;;1.83;1.00;;;;;;;;;;4984607;28;20656;-61
2022/09/18 10:23:14;;;;;;;1.13;0.77;;;;;;;;;;4981074;28;20316;-63
2022/09/18 10:25:58;;;;;;;1.10;0.80;;;;;;;;;;4985884;28;20342;-64
2022/09/18 10:28:28;;;;;;;1.83;1.10;;;;;;;;;;5005538;28;20271;-60
2022/09/18 10:31:00;;;;;;;1.63;1.03;;;;;;;;;;4991946;28;20231;-62
2022/09/18 10:33:38;;;;;;;1.97;1.17;;;;;;;;;;4989709;28;20224;-59
2022/09/18 10:36:18;;;;;;;1.60;0.97;;;;;;;;;;5004721;28;20228;-60
2022/09/18 10:38:45;;;;;;;1.40;0.70;;;;;;;;;;5003885;28;20228;-60
2022/09/18 10:41:25;;;;;;;1.70;0.90;;;;;;;;;;5002218;28;20200;-61
2022/09/18 10:43:54;;;;;;;1.63;0.77;;;;;;;;;;5007206;28;20251;-61
2022/09/18 10:46:23;;;;;;;1.07;0.70;;;;;;;;;;4981117;28;20225;-61
2022/09/18 10:48:50;;;;;;;1.30;1.00;;;;;;;;;;4993601;28;20270;-61
2022/09/18 10:51:19;;;;;;;2.00;0.80;;;;;;;;;;5000188;28;20286;-62
2022/09/18 10:54:00;;;;;;;2.80;1.20;;;;;;;;;;5007048;28;20278;-63
2022/09/18 10:56:26;;;;;;;2.13;1.00;;;;;;;;;;5006774;28;20200;-59
2022/09/18 10:58:52;;;;;;;2.53;1.20;;;;;;;;;;4989477;28;20244;-58
2022/09/18 11:01:19;;;;;;;1.97;1.13;;;;;;;;;;5004821;28;20499;-61
2022/09/18 11:03:48;;;;;;;2.40;0.90;;;;;;;;;;4986271;28;20255;-61
2022/09/18 11:06:18;;;;;;;1.50;1.00;;;;;;;;;;5007352;28;20196;-60
2022/09/18 11:08:49;;;;;;;1.20;0.70;;;;;;;;;;5002837;28;20283;-61
2022/09/18 11:11:28;;;;;;;1.07;0.80;;;;;;;;;;4998580;28;20224;-62
2022/09/18 11:13:59;;;;;;;1.10;0.80;;;;;;;;;;5000406;28;20703;-60
2022/09/18 11:16:35;;;;;;;1.87;1.00;;;;;;;;;;4998297;28;20279;-62
2022/09/18 11:19:03;;;;;;;1.87;0.80;;;;;;;;;;5002033;28;20228;-61
2022/09/18 11:21:41;;;;;;;1.77;1.00;;;;;;;;;;4994915;28;20204;-60
2022/09/18 11:24:16;;;;;;;0.70;0.70;;;;;;;;;;4970611;28;20240;-64
2022/09/18 11:26:50;;;;;;;1.60;1.02;;;;;;;;;;4994948;28;20298;-58
2022/09/18 11:29:18;;;;;;;1.67;1.23;;;;;;;;;;4981158;28;20656;-55
2022/09/18 11:31:55;;;;;;;2.50;0.88;;;;;;;;;;4984164;28;20331;-57
2022/09/18 11:34:24;;;;;;;1.98;1.10;;;;;;;;;;4989441;28;20664;-53
2022/09/18 11:36:55;;;;;;;1.37;1.00;;;;;;;;;;4999117;28;20677;-57
2022/09/18 11:39:27;;;;;;;2.03;1.00;;;;;;;;;;4983546;28;20235;-56
2022/09/18 11:41:54;;;;;;;1.98;1.02;;;;;;;;;;5001961;28;20642;-52
2022/09/18 11:44:24;;;;;;;1.30;0.80;;;;;;;;;;4994187;28;20504;-54
2022/09/18 11:47:11;;;;;;;1.60;0.90;;;;;;;;;;5000307;28;20228;-55
2022/09/18 11:49:45;;;;;;;1.57;0.83;;;;;;;;;;5002227;28;20234;-56
2022/09/18 11:52:18;;;;;;;1.40;0.63;;;;;;;;;;4984067;28;20244;-58
2022/09/18 11:54:53;;;;;;;1.27;0.90;;;;;;;;;;4970687;28;20228;-53
2022/09/18 11:57:24;;;;;;;3.67;0.90;;;;;;;;;;5003196;28;20192;-55
2022/09/18 11:59:57;;;;;;;2.13;1.00;;;;;;;;;;4981722;28;20279;-55
2022/09/18 12:02:42;;;;;;;1.33;1.00;;;;;;;;;;4986948;28;20302;-55
2022/09/18 12:05:19;;;;;;;3.07;0.93;;;;;;;;;;5006443;28;20246;-55
2022/09/18 12:07:52;;;;;;;2.00;1.30;;;;;;;;;;5004467;28;20227;-57
2022/09/18 12:10:26;;;;;;;0.83;0.70;;;;;;;;;;4993354;28;20235;-52
2022/09/18 12:13:15;;;;;;;1.15;0.90;;;;;;;;;;4985031;28;20254;-55
2022/09/18 12:15:46;;;;;;;1.27;0.73;;;;;;;;;;5001766;28;20269;-55
2022/09/18 12:18:17;;;;;;;2.20;0.90;;;;;;;;;;4997272;28;20636;-56
2022/09/18 12:20:54;;;;;;;2.60;0.70;;;;;;;;;;4999820;28;20589;-54
2022/09/18 12:23:25;;;;;;;1.97;0.80;;;;;;;;;;4981064;28;20243;-58
2022/09/18 12:26:06;;;;;;;1.23;0.77;;;;;;;;;;5000082;28;20223;-55
2022/09/18 12:28:42;;;;;;;2.00;1.02;;;;;;;;;;4983994;28;20226;-58
2022/09/18 12:31:11;;;;;;;1.25;0.80;;;;;;;;;;4996024;28;20298;-54
2022/09/18 12:33:44;;;;;;;1.30;0.80;;;;;;;;;;4982849;28;20224;-53
2022/09/18 12:36:23;;;;;;;2.25;1.10;;;;;;;;;;4978431;28;20224;-54
2022/09/18 12:39:01;;;;;;;1.42;0.90;;;;;;;;;;5001780;28;20855;-53
2022/09/18 12:41:52;;;;;;;1.15;0.90;;;;;;;;;;4965664;28;20658;-54
2022/09/18 12:44:38;;;;;;;1.03;0.87;;;;;;;;;;4998649;28;20203;-56
2022/09/18 12:47:17;;;;;;;0.77;0.77;;;;;;;;;;4980056;28;20295;-55
2022/09/18 12:50:06;;;;;;;0.90;0.70;;;;;;;;;;4980005;28;20287;-53
2022/09/18 12:52:56;;;;;;;1.10;0.80;;;;;;;;;;4979240;28;20268;-58
2022/09/18 12:56:10;;;;;;;1.17;0.80;;;;;;;;;;4971598;28;20206;-55
2022/09/18 12:59:06;;;;;;;1.63;0.83;;;;;;;;;;5001672;28;20298;-55
2022/09/18 13:01:40;;;;;;;0.87;0.80;;;;;;;;;;4996350;28;20283;-58
2022/09/18 13:04:22;;;;;;;1.67;0.80;;;;;;;;;;4989212;28;20223;-56
2022/09/18 13:06:53;;;;;;;1.87;0.80;;;;;;;;;;4999443;28;20212;-52
2022/09/18 13:09:26;;;;;;;1.50;0.97;;;;;;;;;;4978018;28;20280;-57
2022/09/18 13:12:04;;;;;;;1.30;0.83;;;;;;;;;;5001164;28;20295;-55
2022/09/18 13:14:53;;;;;;;1.73;0.75;;;;;;;;;;5007420;28;20503;-54
2022/09/18 13:17:26;;;;;;;0.80;0.80;;;;;;;;;;4984165;28;20712;-52
2022/09/18 13:20:00;;;;;;;1.67;0.80;;;;;;;;;;5007841;28;20366;-53
2022/09/18 13:22:31;;;;;;;0.93;0.80;;;;;;;;;;5003246;28;20216;-55
2022/09/18 13:24:57;;;;;;;1.47;0.90;;;;;;;;;;4983831;28;20424;-56
2022/09/18 13:27:24;;;;;;;1.20;0.90;;;;;;;;;;4985992;28;20288;-53
2022/09/18 13:29:51;;;;;;;3.33;1.10;;;;;;;;;;4988454;28;20678;-53
2022/09/18 13:32:29;;;;;;;1.10;0.70;;;;;;;;;;4997405;28;20236;-53
2022/09/18 13:35:06;;;;;;;2.70;1.20;;;;;;;;;;5004689;28;20774;-55
2022/09/18 13:37:32;;;;;;;1.97;0.80;;;;;;;;;;4988482;28;20289;-56
2022/09/18 13:40:02;;;;;;;1.20;0.90;;;;;;;;;;4971216;28;20211;-52
2022/09/18 13:42:41;;;;;;;0.85;0.60;;;;;;;;;;4988358;28;20251;-55
2022/09/18 13:45:25;;;;;;;1.30;0.90;;;;;;;;;;5002794;28;20223;-54
2022/09/18 13:48:00;;;;;;;0.93;0.80;;;;;;;;;;5005635;28;20624;-53
2022/09/18 13:50:27;;;;;;;1.07;0.73;;;;;;;;;;5002230;28;20219;-52
2022/09/18 13:52:55;;;;;;;0.77;0.77;;;;;;;;;;5005750;28;20290;-53
2022/09/18 13:55:25;;;;;;;0.90;0.60;;;;;;;;;;5004266;28;20239;-54
2022/09/18 13:58:30;;;;;;;0.80;0.70;;;;;;;;;;4994663;28;20574;-55
2022/09/18 14:00:58;;;;;;;1.03;0.70;;;;;;;;;;4998964;28;20235;-54
2022/09/18 14:03:25;;;;;;;2.27;1.23;;;;;;;;;;4995108;28;20223;-55
2022/09/18 14:05:53;;;;;;;2.23;0.90;;;;;;;;;;4994717;28;20341;-53
2022/09/18 14:08:23;;;;;;;1.63;0.93;;;;;;;;;;4985440;28;20292;-56
2022/09/18 14:11:08;;;;;;;1.33;1.00;;;;;;;;;;4990303;28;20228;-56
2022/09/18 14:13:50;;;;;;;1.87;1.10;;;;;;;;;;4982345;28;20235;-53
2022/09/18 14:16:20;;;;;;;1.50;0.70;;;;;;;;;;4986190;28;20636;-58
2022/09/18 14:18:46;;;;;;;2.50;1.10;;;;;;;;;;5000825;28;20225;-57
2022/09/18 14:21:37;;;;;;;2.87;1.10;;;;;;;;;;5000552;28;20230;-57
2022/09/18 14:24:41;;;;;;;1.00;0.60;;;;;;;;;;4999704;28;20248;-57
2022/09/18 14:27:29;;;;;;;1.73;0.93;;;;;;;;;;5005511;28;20218;-57
2022/09/18 14:29:58;;;;;;;5.97;0.97;;;;;;;;;;5001573;28;20197;-57
2022/09/18 14:32:25;;;;;;;2.47;1.20;;;;;;;;;;4967891;28;20258;-55
2022/09/18 14:35:21;;;;;;;2.50;0.90;;;;;;;;;;5006728;28;20228;-56
2022/09/18 14:37:48;;;;;;;1.33;0.90;;;;;;;;;;4963996;28;20239;-57
2022/09/18 14:40:20;;;;;;;1.20;0.90;;;;;;;;;;4999153;28;20263;-57
2022/09/18 14:42:48;;;;;;;1.50;0.70;;;;;;;;;;4995255;28;20311;-57
2022/09/18 14:45:29;;;;;;;2.40;1.00;;;;;;;;;;4995274;28;20323;-58
2022/09/18 14:47:56;;;;;;;2.30;1.00;;;;;;;;;;5003227;28;20204;-57
2022/09/18 14:50:36;;;;;;;2.83;1.00;;;;;;;;;;4996147;28;20228;-57
2022/09/18 14:53:23;;;;;;;2.47;0.90;;;;;;;;;;4999190;28;20251;-56
2022/09/18 14:56:04;;;;;;;3.00;1.77;;;;;;;;;;5000486;28;20294;-57
2022/09/18 14:58:36;;;;;;;2.47;0.90;;;;;;;;;;4981118;28;20228;-57
2022/09/18 15:01:10;;;;;;;1.13;0.80;;;;;;;;;;4998655;28;20235;-57
2022/09/18 15:03:39;;;;;;;1.77;0.93;;;;;;;;;;4981502;28;20226;-57
2022/09/18 15:06:09;;;;;;;0.93;0.70;;;;;;;;;;4984076;28;20735;-57
2022/09/18 15:08:36;;;;;;;1.77;1.00;;;;;;;;;;5003816;28;20239;-57
2022/09/18 15:11:03;;;;;;;2.33;1.00;;;;;;;;;;4983624;28;20280;-55
2022/09/18 15:13:32;;;;;;;1.60;1.10;;;;;;;;;;5006340;28;20307;-57
2022/09/18 15:16:00;;;;;;;2.87;1.10;;;;;;;;;;4990950;28;20235;-57